createdAt,value
2022-11-14T00:00:51.686Z,0
2022-11-14T00:01:52.159Z,0
2022-11-14T00:02:51.782Z,0
2022-11-14T00:03:51.628Z,0
2022-11-14T00:04:51.857Z,0
2022-11-14T00:05:51.725Z,0
2022-11-14T00:06:51.969Z,0
2022-11-14T00:07:51.559Z,0
2022-11-14T00:08:51.048Z,0
2022-11-14T00:09:51.785Z,0
2022-11-14T00:10:51.257Z,0
2022-11-14T00:11:51.527Z,0
2022-11-14T00:12:50.968Z,0
2022-11-14T00:13:51.220Z,0
2022-11-14T00:14:51.703Z,0
2022-11-14T00:15:51.457Z,0
2022-11-14T00:16:51.413Z,0
2022-11-14T00:17:52.154Z,0
2022-11-14T00:18:51.336Z,0
2022-11-14T00:19:51.381Z,0
2022-11-14T00:20:51.588Z,0
2022-11-14T00:21:51.197Z,0
2022-11-14T00:22:51.058Z,0
2022-11-14T00:23:51.563Z,0
2022-11-14T00:24:51.023Z,0
2022-11-14T00:25:51.286Z,0
2022-11-14T00:26:51.244Z,0
2022-11-14T00:27:50.737Z,0
2022-11-14T00:28:50.962Z,0
2022-11-14T00:29:50.941Z,0
2022-11-14T00:30:51.427Z,0
2022-11-14T00:31:50.936Z,0
2022-11-14T00:32:50.656Z,0
2022-11-14T00:33:51.621Z,0
2022-11-14T00:34:51.363Z,0
2022-11-14T00:35:50.601Z,0
2022-11-14T00:36:51.077Z,0
2022-11-14T00:37:51.191Z,0
2022-11-14T00:38:50.535Z,0
2022-11-14T00:39:50.786Z,0
2022-11-14T00:40:51.278Z,0
2022-11-14T00:41:50.996Z,0
2022-11-14T00:42:50.723Z,0
2022-11-14T00:43:51.000Z,0
2022-11-14T00:44:50.957Z,0
2022-11-14T00:45:50.684Z,0
2022-11-14T00:46:50.921Z,0
2022-11-14T00:47:51.155Z,0
2022-11-14T00:48:50.614Z,0
2022-11-14T00:49:51.096Z,0
2022-11-14T00:50:50.848Z,0
2022-11-14T00:51:50.840Z,0
2022-11-14T00:52:51.080Z,0
2022-11-14T00:53:50.946Z,0
2022-11-14T00:54:50.805Z,0
2022-11-14T00:55:50.529Z,0
2022-11-14T00:56:50.526Z,0
2022-11-14T00:57:50.476Z,0
2022-11-14T00:58:50.726Z,0
2022-11-14T00:59:50.452Z,0
2022-11-14T01:00:50.655Z,0
2022-11-14T01:01:52.964Z,0
2022-11-14T01:02:50.170Z,0
2022-11-14T01:03:50.653Z,0
2022-11-14T01:04:50.661Z,0
2022-11-14T01:05:51.092Z,0
2022-11-14T01:06:50.846Z,0
2022-11-14T01:07:50.818Z,0
2022-11-14T01:08:51.113Z,0
2022-11-14T01:09:50.914Z,0
2022-11-14T01:10:50.298Z,0
2022-11-14T01:11:50.512Z,0
2022-11-14T01:12:49.725Z,0
2022-11-14T01:13:50.471Z,0
2022-11-14T01:14:50.739Z,0
2022-11-14T01:15:50.456Z,0
2022-11-14T01:16:50.418Z,0
2022-11-14T01:17:49.886Z,0
2022-11-14T01:18:50.653Z,0
2022-11-14T01:19:50.126Z,0
2022-11-14T01:20:49.589Z,0
2022-11-14T01:21:50.743Z,0
2022-11-14T01:22:50.051Z,0
2022-11-14T01:23:50.560Z,0
2022-11-14T01:24:50.530Z,0
2022-11-14T01:25:50.385Z,0
2022-11-14T01:26:50.250Z,0
2022-11-14T01:27:50.230Z,0
2022-11-14T01:28:50.218Z,0
2022-11-14T01:29:50.189Z,0
2022-11-14T01:30:50.182Z,0
2022-11-14T01:31:50.176Z,0
2022-11-14T01:32:49.894Z,0
2022-11-14T01:34:21.861Z,0
2022-11-14T01:34:50.526Z,0
2022-11-14T01:35:50.252Z,0
2022-11-14T01:36:50.256Z,0
2022-11-14T01:37:50.455Z,0
2022-11-14T01:38:50.206Z,0
2022-11-14T01:39:50.174Z,0
2022-11-14T01:40:50.460Z,0
2022-11-14T01:41:49.746Z,0
2022-11-14T01:42:50.127Z,0
2022-11-14T01:43:49.865Z,0
2022-11-14T01:44:49.850Z,0
2022-11-14T01:45:50.086Z,0
2022-11-14T01:46:50.340Z,0
2022-11-14T01:47:50.065Z,0
2022-11-14T01:48:49.789Z,0
2022-11-14T01:49:50.262Z,0
2022-11-14T01:50:49.747Z,0
2022-11-14T01:51:49.475Z,0
2022-11-14T01:52:49.959Z,0
2022-11-14T01:53:50.462Z,0
2022-11-14T01:54:49.695Z,0
2022-11-14T01:55:49.921Z,0
2022-11-14T01:56:50.141Z,0
2022-11-14T01:57:49.991Z,0
2022-11-14T01:58:49.368Z,0
2022-11-14T01:59:49.599Z,0
2022-11-14T02:00:49.067Z,0
2022-11-14T02:01:50.506Z,0
2022-11-14T02:02:49.869Z,0
2022-11-14T02:03:49.572Z,0
2022-11-14T02:04:49.264Z,0
2022-11-14T02:05:49.497Z,0
2022-11-14T02:06:49.379Z,0
2022-11-14T02:07:49.282Z,0
2022-11-14T02:08:49.707Z,0
2022-11-14T02:09:49.830Z,0
2022-11-14T02:10:49.661Z,0
2022-11-14T02:11:49.666Z,0
2022-11-14T02:12:49.888Z,0
2022-11-14T02:13:49.999Z,0
2022-11-14T02:14:49.602Z,0
2022-11-14T02:15:49.341Z,0
2022-11-14T02:17:33.379Z,0
2022-11-14T02:17:49.552Z,0
2022-11-14T02:18:49.040Z,0
2022-11-14T02:19:49.259Z,0
2022-11-14T02:20:48.984Z,0
2022-11-14T02:21:49.260Z,0
2022-11-14T02:22:49.251Z,0
2022-11-14T02:23:48.944Z,0
2022-11-14T02:24:48.955Z,0
2022-11-14T02:25:49.659Z,0
2022-11-14T02:26:49.397Z,0
2022-11-14T02:27:49.386Z,0
2022-11-14T02:28:49.612Z,0
2022-11-14T02:29:49.218Z,0
2022-11-14T02:30:49.592Z,0
2022-11-14T02:31:49.076Z,0
2022-11-14T02:33:19.350Z,0
2022-11-14T02:33:49.105Z,0
2022-11-14T02:34:48.510Z,0
2022-11-14T02:35:49.274Z,0
2022-11-14T02:36:49.261Z,0
2022-11-14T02:37:49.220Z,0
2022-11-14T02:38:48.952Z,0
2022-11-14T02:39:48.930Z,0
2022-11-14T02:40:48.945Z,0
2022-11-14T02:41:49.144Z,0
2022-11-14T02:42:49.150Z,0
2022-11-14T02:43:49.393Z,0
2022-11-14T02:44:49.433Z,0
2022-11-14T02:45:49.232Z,0
2022-11-14T02:46:48.831Z,0
2022-11-14T02:47:49.328Z,0
2022-11-14T02:48:49.062Z,0
2022-11-14T02:49:48.796Z,0
2022-11-14T02:50:49.006Z,0
2022-11-14T02:51:49.052Z,0
2022-11-14T02:52:48.464Z,0
2022-11-14T02:53:49.300Z,0
2022-11-14T02:54:54.700Z,0
2022-11-14T02:55:48.414Z,0
2022-11-14T02:56:48.416Z,0
2022-11-14T02:57:48.796Z,0
2022-11-14T02:58:49.157Z,0
2022-11-14T02:59:48.868Z,0
2022-11-14T03:01:28.185Z,0
2022-11-14T03:01:49.205Z,0
2022-11-14T03:02:48.851Z,0
2022-11-14T03:03:48.793Z,0
2022-11-14T03:04:48.286Z,0
2022-11-14T03:05:48.524Z,0
2022-11-14T03:06:48.721Z,0
2022-11-14T03:07:48.472Z,0
2022-11-14T03:08:48.974Z,0
2022-11-14T03:09:48.200Z,0
2022-11-14T03:10:48.946Z,0
2022-11-14T03:11:48.167Z,0
2022-11-14T03:12:48.901Z,0
2022-11-14T03:13:49.140Z,0
2022-11-14T03:14:48.650Z,0
2022-11-14T03:15:48.861Z,0
2022-11-14T03:16:48.817Z,0
2022-11-14T03:17:48.440Z,0
2022-11-14T03:18:48.307Z,0
2022-11-14T03:19:48.247Z,0
2022-11-14T03:20:48.495Z,0
2022-11-14T03:21:48.724Z,0
2022-11-14T03:22:48.983Z,0
2022-11-14T03:23:48.679Z,0
2022-11-14T03:24:48.674Z,0
2022-11-14T03:25:48.403Z,0
2022-11-14T03:26:48.900Z,0
2022-11-14T03:27:48.630Z,0
2022-11-14T03:28:48.609Z,0
2022-11-14T03:29:49.080Z,0
2022-11-14T03:30:48.330Z,0
2022-11-14T03:31:48.302Z,0
2022-11-14T03:32:48.771Z,0
2022-11-14T03:49:48.141Z,0
2022-11-14T03:50:47.261Z,0
2022-11-14T03:51:47.240Z,0
2022-11-14T03:52:47.505Z,0
2022-11-14T03:53:46.966Z,0
2022-11-14T03:54:47.180Z,0
2022-11-14T03:55:47.420Z,0
2022-11-14T03:56:46.642Z,0
2022-11-14T03:57:46.639Z,0
2022-11-14T03:58:46.860Z,0
2022-11-14T03:59:47.341Z,0
2022-11-14T04:00:47.800Z,0
2022-11-14T04:01:47.522Z,0
2022-11-14T04:02:48.020Z,0
2022-11-14T04:03:47.785Z,0
2022-11-14T04:04:47.732Z,0
2022-11-14T04:05:48.872Z,0
2022-11-14T04:06:47.871Z,0
2022-11-14T04:07:47.665Z,0
2022-11-14T04:08:47.641Z,0
2022-11-14T04:09:47.902Z,0
2022-11-14T04:10:47.375Z,0
2022-11-14T04:11:47.965Z,0
2022-11-14T04:12:48.088Z,0
2022-11-14T04:13:47.567Z,0
2022-11-14T04:14:48.057Z,0
2022-11-14T04:15:47.798Z,0
2022-11-14T04:16:47.512Z,0
2022-11-14T04:17:49.149Z,0
2022-11-14T04:18:47.732Z,0
2022-11-14T04:19:47.463Z,0
2022-11-14T04:20:47.712Z,0
2022-11-14T04:21:48.540Z,0
2022-11-14T04:22:47.677Z,0
2022-11-14T04:23:47.894Z,0
2022-11-14T04:24:47.395Z,0
2022-11-14T04:25:47.106Z,0
2022-11-14T04:26:47.593Z,0
2022-11-14T04:27:47.323Z,0
2022-11-14T04:28:47.308Z,0
2022-11-14T04:29:47.299Z,0
2022-11-14T04:30:47.271Z,0
2022-11-14T04:31:47.264Z,0
2022-11-14T04:32:47.762Z,0
2022-11-14T04:33:47.265Z,0
2022-11-14T04:34:47.211Z,0
2022-11-14T04:35:47.449Z,0
2022-11-14T04:36:47.174Z,0
2022-11-14T04:37:48.280Z,0
2022-11-14T04:38:47.394Z,0
2022-11-14T04:39:47.131Z,0
2022-11-14T04:40:47.620Z,0
2022-11-14T04:41:46.835Z,0
2022-11-14T04:42:47.357Z,0
2022-11-14T04:43:54.041Z,0
2022-11-14T04:44:47.773Z,0
2022-11-14T04:45:47.057Z,0
2022-11-14T04:46:47.536Z,0
2022-11-14T04:47:46.747Z,0
2022-11-14T04:48:46.711Z,0
2022-11-14T04:49:46.960Z,0
2022-11-14T04:50:47.202Z,0
2022-11-14T04:51:46.917Z,0
2022-11-14T04:52:46.907Z,0
2022-11-14T04:53:47.984Z,0
2022-11-14T04:54:47.135Z,0
2022-11-14T04:55:47.115Z,0
2022-11-14T04:56:46.837Z,0
2022-11-14T04:57:47.072Z,0
2022-11-14T04:58:47.078Z,0
2022-11-14T04:59:46.785Z,0
2022-11-14T05:00:47.033Z,0
2022-11-14T05:01:47.560Z,0
2022-11-14T05:02:46.992Z,0
2022-11-14T05:03:46.996Z,0
2022-11-14T05:04:46.986Z,0
2022-11-14T05:05:50.730Z,0
2022-11-14T05:06:48.302Z,0
2022-11-14T05:07:46.747Z,0
2022-11-14T05:08:47.147Z,0
2022-11-14T05:09:47.264Z,0
2022-11-14T05:10:46.598Z,0
2022-11-14T05:11:46.581Z,0
2022-11-14T05:12:46.598Z,0
2022-11-14T05:13:47.071Z,0
2022-11-14T05:14:46.802Z,0
2022-11-14T05:15:46.768Z,0
2022-11-14T05:16:46.749Z,0
2022-11-14T05:17:46.743Z,0
2022-11-14T05:18:52.715Z,0
2022-11-14T05:19:46.451Z,0
2022-11-14T05:20:46.434Z,0
2022-11-14T05:21:46.672Z,0
2022-11-14T05:22:46.398Z,0
2022-11-14T05:23:46.372Z,0
2022-11-14T05:24:46.607Z,0
2022-11-14T05:25:46.981Z,0
2022-11-14T05:26:46.328Z,0
2022-11-14T05:27:46.576Z,0
2022-11-14T05:28:45.788Z,0
2022-11-14T05:29:46.778Z,0
2022-11-14T05:30:46.513Z,0
2022-11-14T05:31:46.763Z,0
2022-11-14T05:32:46.229Z,0
2022-11-14T05:33:45.687Z,0
2022-11-14T05:34:46.704Z,0
2022-11-14T05:35:46.445Z,0
2022-11-14T05:36:46.146Z,0
2022-11-14T05:37:46.390Z,0
2022-11-14T05:38:46.117Z,0
2022-11-14T05:39:46.109Z,0
2022-11-14T05:40:45.838Z,0
2022-11-14T05:41:46.732Z,0
2022-11-14T05:42:46.566Z,0
2022-11-14T05:43:46.076Z,0
2022-11-14T05:44:46.055Z,0
2022-11-14T05:45:46.523Z,0
2022-11-14T05:46:45.992Z,0
2022-11-14T05:47:45.965Z,0
2022-11-14T05:48:46.208Z,0
2022-11-14T05:49:45.921Z,0
2022-11-14T05:50:46.415Z,0
2022-11-14T05:51:45.643Z,0
2022-11-14T05:52:45.890Z,0
2022-11-14T05:53:45.621Z,0
2022-11-14T05:54:46.364Z,0
2022-11-14T05:55:46.343Z,0
2022-11-14T05:56:46.335Z,0
2022-11-14T05:57:46.421Z,0
2022-11-14T05:58:45.783Z,0
2022-11-14T05:59:45.765Z,0
2022-11-14T06:01:01.009Z,0
2022-11-14T06:01:46.394Z,0
2022-11-14T06:02:45.974Z,0
2022-11-14T06:03:45.719Z,0
2022-11-14T06:04:46.214Z,0
2022-11-14T06:05:45.658Z,0
2022-11-14T06:06:45.557Z,0
2022-11-14T06:07:45.825Z,0
2022-11-14T06:08:45.622Z,0
2022-11-14T06:09:45.627Z,0
2022-11-14T06:10:45.854Z,0
2022-11-14T06:11:46.082Z,0
2022-11-14T06:12:45.799Z,0
2022-11-14T06:13:46.171Z,0
2022-11-14T06:14:46.018Z,0
2022-11-14T06:15:45.515Z,0
2022-11-14T06:16:45.987Z,0
2022-11-14T06:17:45.708Z,0
2022-11-14T06:18:45.685Z,0
2022-11-14T06:19:45.435Z,0
2022-11-14T06:20:45.234Z,5
2022-11-14T06:21:45.442Z,5
2022-11-14T06:22:45.876Z,5
2022-11-14T06:23:45.340Z,5
2022-11-14T06:24:45.345Z,5
2022-11-14T06:25:45.320Z,5
2022-11-14T06:26:45.038Z,5
2022-11-14T06:27:45.551Z,5
2022-11-14T06:28:45.782Z,5
2022-11-14T06:29:45.902Z,5
2022-11-14T06:30:45.499Z,10
2022-11-14T06:31:45.467Z,10
2022-11-14T06:32:45.506Z,10
2022-11-14T06:33:45.445Z,10
2022-11-14T06:34:45.418Z,10
2022-11-14T06:35:45.158Z,10
2022-11-14T06:36:45.378Z,10
2022-11-14T06:37:45.128Z,10
2022-11-14T06:38:45.096Z,15
2022-11-14T06:39:45.326Z,15
2022-11-14T06:40:45.113Z,15
2022-11-14T06:41:45.571Z,15
2022-11-14T06:42:45.291Z,15
2022-11-14T06:43:45.262Z,15
2022-11-14T06:44:45.492Z,15
2022-11-14T06:45:45.696Z,20
2022-11-14T06:46:44.957Z,20
2022-11-14T06:47:45.183Z,20
2022-11-14T06:48:44.946Z,20
2022-11-14T06:49:49.565Z,20
2022-11-14T06:50:44.668Z,20
2022-11-14T06:51:45.122Z,20
2022-11-14T06:52:45.117Z,20
2022-11-14T06:53:44.832Z,25
2022-11-14T06:54:45.065Z,25
2022-11-14T06:55:45.311Z,25
2022-11-14T06:56:45.051Z,25
2022-11-14T06:57:45.029Z,25
2022-11-14T06:58:44.743Z,25
2022-11-14T06:59:44.734Z,25
2022-11-14T07:00:44.479Z,25
2022-11-14T07:01:45.395Z,30
2022-11-14T07:02:45.237Z,30
2022-11-14T07:03:44.654Z,30
2022-11-14T07:04:44.911Z,30
2022-11-14T07:05:45.144Z,30
2022-11-14T07:06:44.418Z,30
2022-11-14T07:07:44.982Z,30
2022-11-14T07:08:45.246Z,30
2022-11-14T07:09:44.318Z,30
2022-11-14T07:10:44.802Z,35
2022-11-14T07:11:44.276Z,35
2022-11-14T07:12:44.521Z,35
2022-11-14T07:13:44.492Z,35
2022-11-14T07:14:44.725Z,35
2022-11-14T07:15:44.462Z,35
2022-11-14T07:16:44.708Z,35
2022-11-14T07:17:45.072Z,35
2022-11-14T07:18:44.668Z,35
2022-11-14T07:19:44.657Z,40
2022-11-14T07:20:44.378Z,40
2022-11-14T07:21:44.643Z,40
2022-11-14T07:22:44.080Z,40
2022-11-14T07:23:44.596Z,40
2022-11-14T07:24:44.303Z,40
2022-11-14T07:25:44.845Z,40
2022-11-14T07:26:44.530Z,40
2022-11-14T07:27:44.254Z,40
2022-11-14T07:28:48.078Z,40
2022-11-14T07:29:44.475Z,40
2022-11-14T07:30:44.209Z,40
2022-11-14T07:31:44.197Z,40
2022-11-14T07:32:44.174Z,45
2022-11-14T07:33:44.799Z,45
2022-11-14T07:34:44.795Z,45
2022-11-14T07:35:44.633Z,45
2022-11-14T07:36:44.369Z,45
2022-11-14T07:37:44.367Z,45
2022-11-14T07:38:44.065Z,45
2022-11-14T07:39:44.580Z,45
2022-11-14T07:40:44.032Z,45
2022-11-14T07:41:44.557Z,45
2022-11-14T07:42:44.254Z,45
2022-11-14T07:43:43.996Z,50
2022-11-14T07:44:44.217Z,50
2022-11-14T07:45:44.199Z,50
2022-11-14T07:46:44.439Z,50
2022-11-14T07:47:44.436Z,50
2022-11-14T07:48:44.167Z,50
2022-11-14T07:49:44.522Z,50
2022-11-14T07:50:44.127Z,50
2022-11-14T07:51:44.124Z,50
2022-11-14T07:52:44.094Z,50
2022-11-14T07:53:44.241Z,50
2022-11-14T07:54:44.483Z,50
2022-11-14T07:55:44.236Z,50
2022-11-14T07:56:44.712Z,50
2022-11-14T07:57:55.923Z,50
2022-11-14T07:58:44.938Z,50
2022-11-14T07:59:44.407Z,50
2022-11-14T08:00:45.311Z,50
2022-11-14T08:01:45.054Z,50
2022-11-14T08:02:44.604Z,50
2022-11-14T08:03:51.127Z,50
2022-11-14T08:04:44.606Z,50
2022-11-14T08:05:44.987Z,50
2022-11-14T08:06:44.604Z,50
2022-11-14T08:07:45.014Z,55
2022-11-14T08:08:44.533Z,55
2022-11-14T08:09:44.500Z,55
2022-11-14T08:10:44.298Z,55
2022-11-14T08:11:45.179Z,55
2022-11-14T08:12:44.198Z,55
2022-11-14T08:13:44.477Z,55
2022-11-14T08:14:44.414Z,55
2022-11-14T08:15:43.877Z,55
2022-11-14T08:16:44.391Z,55
2022-11-14T08:17:44.623Z,55
2022-11-14T08:18:44.350Z,55
2022-11-14T08:19:44.110Z,55
2022-11-14T08:20:44.324Z,55
2022-11-14T08:21:44.709Z,55
2022-11-14T08:22:44.281Z,55
2022-11-14T08:23:44.017Z,55
2022-11-14T08:24:43.981Z,55
2022-11-14T08:25:44.010Z,55
2022-11-14T08:26:44.215Z,55
2022-11-14T08:27:44.888Z,55
2022-11-14T08:28:44.510Z,55
2022-11-14T08:29:43.664Z,55
2022-11-14T08:30:43.908Z,55
2022-11-14T08:31:43.618Z,60
2022-11-14T08:32:44.378Z,60
2022-11-14T08:33:44.101Z,60
2022-11-14T08:34:43.834Z,60
2022-11-14T08:35:44.088Z,60
2022-11-14T08:36:44.349Z,60
2022-11-14T08:37:44.545Z,60
2022-11-14T08:38:44.286Z,60
2022-11-14T08:39:44.248Z,60
2022-11-14T08:40:43.817Z,60
2022-11-14T08:41:44.220Z,60
2022-11-14T08:42:43.718Z,60
2022-11-14T08:43:43.680Z,60
2022-11-14T08:44:47.941Z,60
2022-11-14T08:45:43.658Z,60
2022-11-14T08:46:43.911Z,60
2022-11-14T08:47:43.908Z,60
2022-11-14T08:48:44.097Z,65
2022-11-14T08:49:43.347Z,65
2022-11-14T08:50:43.862Z,65
2022-11-14T08:51:45.843Z,65
2022-11-14T08:52:43.541Z,65
2022-11-14T08:53:44.225Z,65
2022-11-14T08:54:43.787Z,65
2022-11-14T08:55:44.038Z,65
2022-11-14T08:56:43.490Z,65
2022-11-14T08:57:49.806Z,65
2022-11-14T08:58:43.512Z,65
2022-11-14T08:59:43.702Z,65
2022-11-14T09:00:43.931Z,65
2022-11-14T09:01:43.687Z,65
2022-11-14T09:02:43.902Z,65
2022-11-14T09:03:44.653Z,65
2022-11-14T09:04:44.002Z,65
2022-11-14T09:05:43.334Z,65
2022-11-14T09:06:43.381Z,65
2022-11-14T09:07:43.411Z,65
2022-11-14T09:08:43.607Z,65
2022-11-14T09:09:43.901Z,60
2022-11-14T09:10:43.512Z,65
2022-11-14T09:11:43.745Z,65
2022-11-14T09:12:43.731Z,65
2022-11-14T09:13:43.715Z,65
2022-11-14T09:14:43.446Z,65
2022-11-14T09:15:43.437Z,65
2022-11-14T09:16:43.164Z,65
2022-11-14T09:17:43.643Z,65
2022-11-14T09:18:43.542Z,65
2022-11-14T09:19:43.625Z,65
2022-11-14T09:20:48.779Z,65
2022-11-14T09:21:43.384Z,65
2022-11-14T09:22:42.813Z,65
2022-11-14T09:23:43.570Z,65
2022-11-14T09:24:42.831Z,65
2022-11-14T09:25:43.744Z,65
2022-11-14T09:26:43.280Z,65
2022-11-14T09:27:43.232Z,65
2022-11-14T09:28:43.219Z,65
2022-11-14T09:29:43.463Z,65
2022-11-14T09:30:43.210Z,65
2022-11-14T09:31:42.659Z,65
2022-11-14T09:32:42.923Z,65
2022-11-14T09:33:43.445Z,65
2022-11-14T09:34:42.903Z,65
2022-11-14T09:35:43.380Z,65
2022-11-14T09:36:42.846Z,65
2022-11-14T09:37:42.844Z,65
2022-11-14T09:38:47.556Z,65
2022-11-14T09:39:43.363Z,65
2022-11-14T09:40:43.278Z,65
2022-11-14T09:41:43.412Z,65
2022-11-14T09:42:42.489Z,65
2022-11-14T09:43:42.481Z,65
2022-11-14T09:44:42.731Z,65
2022-11-14T09:45:42.711Z,65
2022-11-14T09:46:42.780Z,65
2022-11-14T09:47:42.772Z,65
2022-11-14T09:48:43.101Z,65
2022-11-14T09:49:43.179Z,65
2022-11-14T09:50:42.897Z,65
2022-11-14T09:51:42.868Z,65
2022-11-14T09:52:42.851Z,65
2022-11-14T09:53:42.314Z,70
2022-11-14T09:54:42.811Z,70
2022-11-14T09:55:46.192Z,70
2022-11-14T09:56:42.289Z,70
2022-11-14T09:57:43.146Z,70
2022-11-14T09:58:42.806Z,70
2022-11-14T09:59:43.028Z,70
2022-11-14T10:00:44.123Z,70
2022-11-14T10:01:43.160Z,70
2022-11-14T10:02:42.456Z,70
2022-11-14T10:03:42.969Z,70
2022-11-14T10:04:42.933Z,70
2022-11-14T10:05:42.145Z,70
2022-11-14T10:06:41.881Z,70
2022-11-14T10:07:42.984Z,70
2022-11-14T10:08:42.625Z,70
2022-11-14T10:09:42.596Z,70
2022-11-14T10:10:47.838Z,70
2022-11-14T10:11:42.554Z,70
2022-11-14T10:12:42.585Z,70
2022-11-14T10:13:43.537Z,70
2022-11-14T10:14:42.826Z,70
2022-11-14T10:15:43.563Z,70
2022-11-14T10:16:42.238Z,70
2022-11-14T10:17:42.500Z,70
2022-11-14T10:18:42.688Z,75
2022-11-14T10:19:48.603Z,75
2022-11-14T10:20:42.696Z,75
2022-11-14T10:21:42.166Z,75
2022-11-14T10:22:42.409Z,75
2022-11-14T10:23:42.484Z,75
2022-11-14T10:24:42.372Z,75
2022-11-14T10:25:48.962Z,75
2022-11-14T10:26:42.343Z,75
2022-11-14T10:27:42.087Z,75
2022-11-14T10:28:42.045Z,75
2022-11-14T10:29:42.712Z,75
2022-11-14T10:30:42.292Z,75
2022-11-14T10:31:42.535Z,75
2022-11-14T10:32:42.524Z,75
2022-11-14T10:33:41.741Z,75
2022-11-14T10:34:41.972Z,75
2022-11-14T10:35:44.935Z,75
2022-11-14T10:36:41.956Z,75
2022-11-14T10:37:42.199Z,75
2022-11-14T10:38:42.373Z,75
2022-11-14T10:39:41.913Z,75
2022-11-14T10:40:42.440Z,75
2022-11-14T10:42:12.597Z,75
2022-11-14T10:42:42.125Z,75
2022-11-14T10:43:42.375Z,75
2022-11-14T10:44:42.102Z,75
2022-11-14T10:45:42.447Z,75
2022-11-14T10:46:41.581Z,75
2022-11-14T10:47:42.069Z,75
2022-11-14T10:48:42.070Z,75
2022-11-14T10:49:41.786Z,75
2022-11-14T10:50:42.017Z,75
2022-11-14T10:51:41.739Z,75
2022-11-14T10:52:41.997Z,75
2022-11-14T10:53:41.966Z,75
2022-11-14T10:54:41.951Z,75
2022-11-14T10:56:12.522Z,75
2022-11-14T10:56:41.916Z,75
2022-11-14T10:57:42.166Z,75
2022-11-14T10:58:57.380Z,75
2022-11-14T10:59:41.883Z,75
2022-11-14T11:00:41.962Z,75
2022-11-14T11:01:42.588Z,75
2022-11-14T11:02:45.166Z,75
2022-11-14T11:03:42.143Z,75
2022-11-14T11:04:41.586Z,75
2022-11-14T11:05:41.297Z,75
2022-11-14T11:06:41.801Z,75
2022-11-14T11:07:42.243Z,75
2022-11-14T11:08:58.345Z,75
2022-11-14T11:09:49.748Z,75
2022-11-14T11:10:41.498Z,75
2022-11-14T11:11:41.780Z,75
2022-11-14T11:12:41.883Z,75
2022-11-14T11:13:41.697Z,75
2022-11-14T11:14:41.179Z,75
2022-11-14T11:15:41.162Z,75
2022-11-14T11:16:41.400Z,75
2022-11-14T11:17:50.533Z,75
2022-11-14T11:18:42.320Z,75
2022-11-14T11:19:41.622Z,75
2022-11-14T11:20:41.853Z,75
2022-11-14T11:21:42.060Z,75
2022-11-14T11:22:42.250Z,75
2022-11-14T11:23:41.811Z,75
2022-11-14T11:24:41.038Z,75
2022-11-14T11:25:41.288Z,75
2022-11-14T11:26:41.525Z,75
2022-11-14T11:27:41.010Z,75
2022-11-14T11:28:42.192Z,75
2022-11-14T11:29:41.729Z,75
2022-11-14T11:30:41.727Z,75
2022-11-14T11:31:41.205Z,75
2022-11-14T11:32:41.740Z,75
2022-11-14T11:33:42.374Z,75
2022-11-14T11:34:41.420Z,75
2022-11-14T11:35:41.448Z,75
2022-11-14T11:36:41.159Z,75
2022-11-14T11:37:41.425Z,75
2022-11-14T11:38:42.074Z,75
2022-11-14T11:39:41.670Z,75
2022-11-14T11:40:41.098Z,75
2022-11-14T11:42:18.120Z,75
2022-11-14T11:43:44.920Z,75
2022-11-14T11:44:03.505Z,75
2022-11-14T11:44:55.224Z,70
2022-11-14T11:45:54.704Z,70
2022-11-14T11:46:55.474Z,70
2022-11-14T11:47:55.152Z,70
2022-11-14T11:48:55.785Z,70
2022-11-14T11:50:02.026Z,70
2022-11-14T11:50:55.370Z,70
2022-11-14T11:51:55.342Z,70
2022-11-14T11:52:55.101Z,70
2022-11-14T11:53:55.332Z,70
2022-11-14T11:54:55.578Z,70
2022-11-14T11:55:54.806Z,70
2022-11-14T11:56:55.628Z,70
2022-11-14T11:57:55.543Z,70
2022-11-14T11:58:55.004Z,70
2022-11-14T11:59:55.286Z,70
2022-11-14T12:00:54.724Z,70
2022-11-14T12:01:54.952Z,70
2022-11-14T12:02:59.645Z,70
2022-11-14T12:03:55.790Z,70
2022-11-14T12:04:55.821Z,70
2022-11-14T12:05:55.167Z,70
2022-11-14T12:06:55.519Z,70
2022-11-14T12:07:54.955Z,70
2022-11-14T12:08:55.144Z,70
2022-11-14T12:10:24.873Z,70
2022-11-14T12:10:54.351Z,70
2022-11-14T12:11:55.097Z,65
2022-11-14T12:12:54.836Z,65
2022-11-14T12:13:54.822Z,65
2022-11-14T12:14:55.044Z,65
2022-11-14T12:15:54.798Z,65
2022-11-14T12:16:55.044Z,65
2022-11-14T12:17:55.275Z,65
2022-11-14T12:18:55.261Z,65
2022-11-14T12:19:54.736Z,65
2022-11-14T12:20:55.378Z,65
2022-11-14T12:22:01.285Z,65
2022-11-14T12:22:54.701Z,65
2022-11-14T12:23:54.931Z,65
2022-11-14T12:24:54.684Z,65
2022-11-14T12:25:54.923Z,65
2022-11-14T12:26:54.640Z,65
2022-11-14T12:27:55.088Z,65
2022-11-14T12:28:54.618Z,65
2022-11-14T12:29:54.889Z,65
2022-11-14T12:30:54.892Z,65
2022-11-14T12:31:54.590Z,65
2022-11-14T12:32:54.840Z,65
2022-11-14T12:33:54.817Z,65
2022-11-14T12:34:54.972Z,65
2022-11-14T12:35:54.827Z,65
2022-11-14T12:36:55.443Z,65
2022-11-14T12:38:01.451Z,65
2022-11-14T12:38:54.247Z,60
2022-11-14T12:39:54.489Z,65
2022-11-14T12:40:54.469Z,60
2022-11-14T12:41:54.719Z,60
2022-11-14T12:42:54.200Z,65
2022-11-14T12:43:55.137Z,60
2022-11-14T12:44:54.423Z,65
2022-11-14T12:45:54.662Z,60
2022-11-14T12:46:54.412Z,60
2022-11-14T12:47:54.904Z,60
2022-11-14T12:48:54.384Z,60
2022-11-14T12:49:54.612Z,60
2022-11-14T12:50:54.847Z,55
2022-11-14T12:51:54.599Z,50
2022-11-14T12:52:55.047Z,55
2022-11-14T12:53:54.574Z,60
2022-11-14T12:54:54.341Z,60
2022-11-14T12:55:54.270Z,65
2022-11-14T12:57:01.442Z,60
2022-11-14T12:57:54.546Z,60
2022-11-14T12:58:54.492Z,65
2022-11-14T12:59:53.964Z,60
2022-11-14T13:00:54.321Z,60
2022-11-14T13:01:55.338Z,60
2022-11-14T13:02:54.458Z,60
2022-11-14T13:03:54.429Z,60
2022-11-14T13:04:53.919Z,60
2022-11-14T13:05:54.433Z,60
2022-11-14T13:06:54.825Z,60
2022-11-14T13:07:54.378Z,60
2022-11-14T13:08:54.761Z,60
2022-11-14T13:09:54.371Z,55
2022-11-14T13:10:54.087Z,55
2022-11-14T13:11:54.318Z,55
2022-11-14T13:12:54.337Z,55
2022-11-14T13:13:54.554Z,50
2022-11-14T13:14:54.040Z,50
2022-11-14T13:15:58.464Z,55
2022-11-14T13:16:53.756Z,60
2022-11-14T13:17:54.282Z,65
2022-11-14T13:18:54.498Z,70
2022-11-14T13:19:53.742Z,75
2022-11-14T13:20:53.966Z,80
2022-11-14T13:21:55.490Z,85
2022-11-14T13:22:54.457Z,90
2022-11-14T13:23:53.909Z,90
2022-11-14T13:24:54.564Z,95
2022-11-14T13:25:53.882Z,100
2022-11-14T13:26:54.126Z,95
2022-11-14T13:28:29.405Z,100
2022-11-14T13:28:54.346Z,100
2022-11-14T13:29:53.576Z,95
2022-11-14T13:30:53.575Z,90
2022-11-14T13:31:53.326Z,85
2022-11-14T13:32:53.836Z,85
2022-11-14T13:33:53.811Z,90
2022-11-14T13:34:54.034Z,90
2022-11-14T13:35:54.030Z,95
2022-11-14T13:36:53.748Z,95
2022-11-14T13:37:54.247Z,95
2022-11-14T13:38:54.110Z,85
2022-11-14T13:39:54.235Z,90
2022-11-14T13:40:54.348Z,100
2022-11-14T13:41:56.900Z,105
2022-11-14T13:42:53.694Z,115
2022-11-14T13:43:53.909Z,125
2022-11-14T13:44:53.152Z,125
2022-11-14T13:45:53.932Z,110
2022-11-14T13:46:53.371Z,100
2022-11-14T13:47:53.611Z,100
2022-11-14T13:48:56.952Z,100
2022-11-14T13:49:53.843Z,105
2022-11-14T13:50:53.838Z,120
2022-11-14T13:51:53.917Z,130
2022-11-14T13:52:54.049Z,125
2022-11-14T13:53:53.788Z,105
2022-11-14T13:54:53.270Z,90
2022-11-14T13:55:53.772Z,70
2022-11-14T13:56:54.123Z,65
2022-11-14T13:57:53.729Z,65
2022-11-14T13:58:53.731Z,65
2022-11-14T13:59:53.456Z,60
2022-11-14T14:00:54.138Z,60
2022-11-14T14:01:53.640Z,60
2022-11-14T14:02:53.669Z,60
2022-11-14T14:03:53.645Z,65
2022-11-14T14:04:53.129Z,60
2022-11-14T14:05:52.870Z,55
2022-11-14T14:06:53.667Z,55
2022-11-14T14:07:53.598Z,60
2022-11-14T14:08:53.350Z,60
2022-11-14T14:09:53.322Z,55
2022-11-14T14:10:53.325Z,50
2022-11-14T14:11:53.813Z,50
2022-11-14T14:12:53.971Z,45
2022-11-14T14:14:00.177Z,45
2022-11-14T14:14:53.526Z,45
2022-11-14T14:15:53.494Z,40
2022-11-14T14:16:53.243Z,40
2022-11-14T14:17:53.751Z,45
2022-11-14T14:18:53.469Z,45
2022-11-14T14:19:53.453Z,40
2022-11-14T14:20:53.443Z,40
2022-11-14T14:21:53.438Z,45
2022-11-14T14:22:53.448Z,45
2022-11-14T14:23:53.149Z,45
2022-11-14T14:24:53.383Z,45
2022-11-14T14:25:53.151Z,40
2022-11-14T14:26:53.385Z,40
2022-11-14T14:27:53.107Z,40
2022-11-14T14:28:53.950Z,40
2022-11-14T14:29:53.330Z,40
2022-11-14T14:30:52.802Z,40
2022-11-14T14:31:53.028Z,35
2022-11-14T14:32:53.545Z,40
2022-11-14T14:33:53.284Z,35
2022-11-14T14:34:53.247Z,35
2022-11-14T14:35:53.237Z,35
2022-11-14T14:36:53.007Z,35
2022-11-14T14:37:53.251Z,35
2022-11-14T14:38:52.439Z,35
2022-11-14T14:39:53.442Z,35
2022-11-14T14:40:52.948Z,35
2022-11-14T14:41:53.177Z,35
2022-11-14T14:42:53.157Z,35
2022-11-14T14:43:53.136Z,35
2022-11-14T14:44:53.493Z,35